sensor_id;sensor_type;location;lat;lon;timestamp;pressure;altitude;pressure_sealevel;temperature;humidity
24892;BME280;12954;50.688;10.908;2023-04-01T00:01:17;93890.31;;;7.09;66.37
24892;BME280;12954;50.688;10.908;2023-04-01T00:03:45;93870.44;;;7.10;66.42
24892;BME280;12954;50.688;10.908;2023-04-01T00:06:17;93844.44;;;6.97;65.99
24892;BME280;12954;50.688;10.908;2023-04-01T00:08:46;93830.84;;;6.94;65.72
24892;BME280;12954;50.688;10.908;2023-04-01T00:11:16;93861.00;;;7.13;65.79
24892;BME280;12954;50.688;10.908;2023-04-01T00:13:46;93862.50;;;7.05;66.13
24892;BME280;12954;50.688;10.908;2023-04-01T00:16:16;93866.16;;;7.23;65.38
24892;BME280;12954;50.688;10.908;2023-04-01T00:18:49;93854.56;;;7.14;65.57
24892;BME280;12954;50.688;10.908;2023-04-01T00:21:18;93858.81;;;7.15;65.62
24892;BME280;12954;50.688;10.908;2023-04-01T00:23:47;93856.94;;;7.02;65.97
24892;BME280;12954;50.688;10.908;2023-04-01T00:26:17;93869.75;;;7.05;65.97
24892;BME280;12954;50.688;10.908;2023-04-01T00:28:48;93863.00;;;6.94;66.16
24892;BME280;12954;50.688;10.908;2023-04-01T00:31:17;93847.53;;;6.91;66.37
24892;BME280;12954;50.688;10.908;2023-04-01T00:33:45;93860.22;;;6.99;66.25
24892;BME280;12954;50.688;10.908;2023-04-01T00:36:16;93870.31;;;7.15;65.69
24892;BME280;12954;50.688;10.908;2023-04-01T00:38:45;93863.31;;;7.06;65.68
24892;BME280;12954;50.688;10.908;2023-04-01T00:41:15;93849.00;;;6.97;65.63
24892;BME280;12954;50.688;10.908;2023-04-01T00:43:46;93857.44;;;7.04;65.68
24892;BME280;12954;50.688;10.908;2023-04-01T00:46:15;93859.13;;;7.13;65.20
24892;BME280;12954;50.688;10.908;2023-04-01T00:48:46;93861.94;;;6.95;65.90
24892;BME280;12954;50.688;10.908;2023-04-01T00:51:17;93869.38;;;6.98;65.38
24892;BME280;12954;50.688;10.908;2023-04-01T00:53:48;93819.75;;;6.73;66.06
24892;BME280;12954;50.688;10.908;2023-04-01T00:56:21;93864.81;;;6.85;66.30
24892;BME280;12954;50.688;10.908;2023-04-01T00:58:55;93837.81;;;6.67;66.12
24892;BME280;12954;50.688;10.908;2023-04-01T01:01:26;93865.22;;;6.92;66.02
24892;BME280;12954;50.688;10.908;2023-04-01T01:03:55;93867.75;;;6.83;66.35
24892;BME280;12954;50.688;10.908;2023-04-01T01:06:34;93860.53;;;6.84;66.07
24892;BME280;12954;50.688;10.908;2023-04-01T01:09:12;93831.34;;;6.55;66.36
24892;BME280;12954;50.688;10.908;2023-04-01T01:11:46;93863.09;;;6.75;66.35
24892;BME280;12954;50.688;10.908;2023-04-01T01:14:25;93853.47;;;6.88;66.05
24892;BME280;12954;50.688;10.908;2023-04-01T01:16:59;93878.31;;;6.80;66.16
24892;BME280;12954;50.688;10.908;2023-04-01T01:19:48;93859.03;;;7.05;64.76
24892;BME280;12954;50.688;10.908;2023-04-01T01:22:49;93843.16;;;6.67;65.33
24892;BME280;12954;50.688;10.908;2023-04-01T01:25:31;93859.03;;;6.78;65.99
24892;BME280;12954;50.688;10.908;2023-04-01T01:28:15;93855.28;;;6.79;65.53
24892;BME280;12954;50.688;10.908;2023-04-01T01:30:56;93844.56;;;6.65;65.93
24892;BME280;12954;50.688;10.908;2023-04-01T01:33:54;93863.00;;;6.66;66.24
24892;BME280;12954;50.688;10.908;2023-04-01T01:36:31;93840.50;;;6.67;65.85
24892;BME280;12954;50.688;10.908;2023-04-01T01:39:03;93854.47;;;6.78;65.78
24892;BME280;12954;50.688;10.908;2023-04-01T01:41:34;93865.09;;;6.97;64.84
24892;BME280;12954;50.688;10.908;2023-04-01T01:44:05;93814.56;;;6.63;65.18
24892;BME280;12954;50.688;10.908;2023-04-01T01:46:36;93869.06;;;6.86;65.11
24892;BME280;12954;50.688;10.908;2023-04-01T01:49:07;93855.88;;;6.76;65.43
24892;BME280;12954;50.688;10.908;2023-04-01T01:51:40;93864.41;;;6.64;65.72
24892;BME280;12954;50.688;10.908;2023-04-01T01:54:12;93853.69;;;6.64;66.08
24892;BME280;12954;50.688;10.908;2023-04-01T01:56:41;93843.03;;;6.45;65.30
24892;BME280;12954;50.688;10.908;2023-04-01T01:59:11;93819.72;;;6.46;65.34
24892;BME280;12954;50.688;10.908;2023-04-01T02:01:45;93815.28;;;6.41;65.66
24892;BME280;12954;50.688;10.908;2023-04-01T02:04:14;93846.81;;;6.58;65.99
24892;BME280;12954;50.688;10.908;2023-04-01T02:06:49;93848.81;;;6.66;65.61
24892;BME280;12954;50.688;10.908;2023-04-01T02:09:19;93849.81;;;6.70;65.57
24892;BME280;12954;50.688;10.908;2023-04-01T02:11:50;93848.31;;;6.78;65.12
24892;BME280;12954;50.688;10.908;2023-04-01T02:14:21;93859.44;;;6.85;65.05
24892;BME280;12954;50.688;10.908;2023-04-01T02:16:53;93836.63;;;6.74;65.39
24892;BME280;12954;50.688;10.908;2023-04-01T02:19:26;93828.06;;;6.44;65.67
24892;BME280;12954;50.688;10.908;2023-04-01T02:22:01;93848.72;;;6.71;65.66
24892;BME280;12954;50.688;10.908;2023-04-01T02:24:31;93835.22;;;6.76;65.45
24892;BME280;12954;50.688;10.908;2023-04-01T02:27:03;93810.59;;;6.60;65.36
24892;BME280;12954;50.688;10.908;2023-04-01T02:29:32;93837.69;;;6.73;65.31
24892;BME280;12954;50.688;10.908;2023-04-01T02:32:02;93849.50;;;6.72;65.68
24892;BME280;12954;50.688;10.908;2023-04-01T02:34:31;93849.59;;;6.66;65.98
24892;BME280;12954;50.688;10.908;2023-04-01T02:37:01;93845.44;;;6.60;66.02
24892;BME280;12954;50.688;10.908;2023-04-01T02:39:29;93844.66;;;6.74;65.46
24892;BME280;12954;50.688;10.908;2023-04-01T02:41:58;93854.47;;;6.64;65.68
24892;BME280;12954;50.688;10.908;2023-04-01T02:44:27;93855.97;;;6.71;65.61
24892;BME280;12954;50.688;10.908;2023-04-01T02:46:56;93843.66;;;6.69;65.64
24892;BME280;12954;50.688;10.908;2023-04-01T02:49:24;93850.72;;;6.65;65.85
24892;BME280;12954;50.688;10.908;2023-04-01T02:51:53;93846.72;;;6.63;65.99
24892;BME280;12954;50.688;10.908;2023-04-01T02:54:23;93841.38;;;6.63;65.64
24892;BME280;12954;50.688;10.908;2023-04-01T02:56:51;93846.34;;;6.69;65.73
24892;BME280;12954;50.688;10.908;2023-04-01T02:59:19;93856.06;;;6.65;65.95
24892;BME280;12954;50.688;10.908;2023-04-01T03:01:48;93856.47;;;6.73;65.51
24892;BME280;12954;50.688;10.908;2023-04-01T03:04:16;93841.56;;;6.66;65.70
24892;BME280;12954;50.688;10.908;2023-04-01T03:06:45;93851.31;;;6.62;65.91
24892;BME280;12954;50.688;10.908;2023-04-01T03:09:13;93859.34;;;6.62;66.19
24892;BME280;12954;50.688;10.908;2023-04-01T03:11:43;93852.28;;;6.66;65.56
24892;BME280;12954;50.688;10.908;2023-04-01T03:14:11;93846.44;;;6.64;65.64
24892;BME280;12954;50.688;10.908;2023-04-01T03:16:40;93846.72;;;6.49;65.64
24892;BME280;12954;50.688;10.908;2023-04-01T03:19:08;93832.84;;;6.47;65.86
24892;BME280;12954;50.688;10.908;2023-04-01T03:21:36;93861.31;;;6.71;65.03
24892;BME280;12954;50.688;10.908;2023-04-01T03:24:05;93849.72;;;6.61;65.53
24892;BME280;12954;50.688;10.908;2023-04-01T03:26:34;93854.66;;;6.54;66.01
24892;BME280;12954;50.688;10.908;2023-04-01T03:29:04;93848.13;;;6.47;65.99
24892;BME280;12954;50.688;10.908;2023-04-01T03:31:33;93867.38;;;6.62;65.52
24892;BME280;12954;50.688;10.908;2023-04-01T03:34:02;93858.81;;;6.60;65.87
24892;BME280;12954;50.688;10.908;2023-04-01T03:36:30;93845.34;;;6.93;64.04
24892;BME280;12954;50.688;10.908;2023-04-01T03:38:59;93857.94;;;6.79;64.30
24892;BME280;12954;50.688;10.908;2023-04-01T03:41:27;93848.31;;;6.78;64.32
24892;BME280;12954;50.688;10.908;2023-04-01T03:43:55;93862.41;;;6.56;65.33
24892;BME280;12954;50.688;10.908;2023-04-01T03:46:25;93863.97;;;6.57;65.16
24892;BME280;12954;50.688;10.908;2023-04-01T03:48:54;93870.16;;;6.71;64.97
24892;BME280;12954;50.688;10.908;2023-04-01T03:51:22;93868.94;;;6.63;65.32
24892;BME280;12954;50.688;10.908;2023-04-01T03:53:51;93860.91;;;6.63;65.18
24892;BME280;12954;50.688;10.908;2023-04-01T03:56:19;93865.88;;;6.56;65.54
24892;BME280;12954;50.688;10.908;2023-04-01T03:58:50;93879.28;;;6.56;65.65
24892;BME280;12954;50.688;10.908;2023-04-01T04:01:20;93883.47;;;6.62;65.13
24892;BME280;12954;50.688;10.908;2023-04-01T04:03:51;93855.22;;;6.24;65.67
24892;BME280;12954;50.688;10.908;2023-04-01T04:06:19;93875.75;;;6.42;66.25
24892;BME280;12954;50.688;10.908;2023-04-01T04:08:48;93846.09;;;6.25;66.19
24892;BME280;12954;50.688;10.908;2023-04-01T04:11:16;93867.84;;;6.37;66.29
24892;BME280;12954;50.688;10.908;2023-04-01T04:13:45;93871.41;;;6.46;66.36
24892;BME280;12954;50.688;10.908;2023-04-01T04:16:15;93886.41;;;6.47;66.49
24892;BME280;12954;50.688;10.908;2023-04-01T04:18:43;93880.66;;;6.54;66.39
24892;BME280;12954;50.688;10.908;2023-04-01T04:21:14;93872.81;;;6.57;66.29
24892;BME280;12954;50.688;10.908;2023-04-01T04:23:43;93891.56;;;6.57;66.05
24892;BME280;12954;50.688;10.908;2023-04-01T04:26:13;93883.41;;;6.49;66.42
24892;BME280;12954;50.688;10.908;2023-04-01T04:28:42;93885.41;;;6.43;66.76
24892;BME280;12954;50.688;10.908;2023-04-01T04:31:11;93870.72;;;6.54;66.10
24892;BME280;12954;50.688;10.908;2023-04-01T04:33:39;93886.09;;;6.35;66.60
24892;BME280;12954;50.688;10.908;2023-04-01T04:36:08;93893.06;;;6.50;66.03
24892;BME280;12954;50.688;10.908;2023-04-01T04:38:38;93883.84;;;6.56;65.67
24892;BME280;12954;50.688;10.908;2023-04-01T04:41:09;93851.22;;;6.22;65.83
24892;BME280;12954;50.688;10.908;2023-04-01T04:43:38;93882.22;;;6.41;66.36
24892;BME280;12954;50.688;10.908;2023-04-01T04:46:07;93884.59;;;6.43;66.00
24892;BME280;12954;50.688;10.908;2023-04-01T04:48:36;93882.63;;;6.48;65.71
24892;BME280;12954;50.688;10.908;2023-04-01T04:51:04;93887.66;;;6.36;66.11
24892;BME280;12954;50.688;10.908;2023-04-01T04:53:33;93882.03;;;6.38;65.84
24892;BME280;12954;50.688;10.908;2023-04-01T04:56:02;93849.00;;;6.10;66.16
24892;BME280;12954;50.688;10.908;2023-04-01T04:58:31;93883.84;;;6.56;65.36
24892;BME280;12954;50.688;10.908;2023-04-01T05:01:05;93847.84;;;6.16;65.70
24892;BME280;12954;50.688;10.908;2023-04-01T05:03:33;93881.59;;;6.31;65.94
24892;BME280;12954;50.688;10.908;2023-04-01T05:06:03;93887.75;;;6.31;66.29
24892;BME280;12954;50.688;10.908;2023-04-01T05:08:31;93884.97;;;6.36;66.02
24892;BME280;12954;50.688;10.908;2023-04-01T05:11:01;93876.72;;;6.19;66.34
24892;BME280;12954;50.688;10.908;2023-04-01T05:13:31;93874.25;;;6.36;65.77
24892;BME280;12954;50.688;10.908;2023-04-01T05:15:59;93877.56;;;6.33;66.08
24892;BME280;12954;50.688;10.908;2023-04-01T05:18:27;93878.75;;;6.27;65.94
24892;BME280;12954;50.688;10.908;2023-04-01T05:20:56;93879.81;;;6.26;66.09
24892;BME280;12954;50.688;10.908;2023-04-01T05:23:25;93881.13;;;6.42;65.55
24892;BME280;12954;50.688;10.908;2023-04-01T05:25:53;93862.78;;;6.49;65.09
24892;BME280;12954;50.688;10.908;2023-04-01T05:28:23;93871.00;;;6.39;65.52
24892;BME280;12954;50.688;10.908;2023-04-01T05:30:53;93867.34;;;6.35;65.50
24892;BME280;12954;50.688;10.908;2023-04-01T05:33:21;93866.16;;;6.41;65.61
24892;BME280;12954;50.688;10.908;2023-04-01T05:35:50;93843.72;;;6.37;65.25
24892;BME280;12954;50.688;10.908;2023-04-01T05:38:18;93858.03;;;6.46;65.46
24892;BME280;12954;50.688;10.908;2023-04-01T05:40:47;93867.72;;;6.42;65.63
24892;BME280;12954;50.688;10.908;2023-04-01T05:43:15;93884.81;;;6.46;65.49
24892;BME280;12954;50.688;10.908;2023-04-01T05:45:44;93874.19;;;6.41;65.49
24892;BME280;12954;50.688;10.908;2023-04-01T05:48:14;93875.50;;;6.44;65.74
24892;BME280;12954;50.688;10.908;2023-04-01T05:50:42;93845.50;;;6.28;65.96
24892;BME280;12954;50.688;10.908;2023-04-01T05:53:10;93883.53;;;6.57;65.50
24892;BME280;12954;50.688;10.908;2023-04-01T05:55:39;93882.03;;;6.51;66.00
24892;BME280;12954;50.688;10.908;2023-04-01T05:58:07;93880.25;;;6.60;65.95
24892;BME280;12954;50.688;10.908;2023-04-01T06:00:35;93894.19;;;6.62;65.64
24892;BME280;12954;50.688;10.908;2023-04-01T06:03:04;93891.41;;;6.67;65.74
24892;BME280;12954;50.688;10.908;2023-04-01T06:05:39;93882.44;;;6.72;65.49
24892;BME280;12954;50.688;10.908;2023-04-01T06:08:11;93891.19;;;6.64;66.09
24892;BME280;12954;50.688;10.908;2023-04-01T06:10:48;93897.13;;;6.75;65.72
24892;BME280;12954;50.688;10.908;2023-04-01T06:13:25;93880.56;;;6.73;65.82
24892;BME280;12954;50.688;10.908;2023-04-01T06:16:04;93830.94;;;6.34;66.10
24892;BME280;12954;50.688;10.908;2023-04-01T06:18:44;93883.44;;;6.90;65.55
24892;BME280;12954;50.688;10.908;2023-04-01T06:24:28;93889.81;;;6.94;65.88
24892;BME280;12954;50.688;10.908;2023-04-01T06:27:04;93900.72;;;7.11;65.08
24892;BME280;12954;50.688;10.908;2023-04-01T06:29:50;93897.25;;;7.10;65.21
24892;BME280;12954;50.688;10.908;2023-04-01T06:38:33;93891.50;;;7.17;65.49
24892;BME280;12954;50.688;10.908;2023-04-01T06:41:24;93900.03;;;7.19;65.38
24892;BME280;12954;50.688;10.908;2023-04-01T06:44:07;93905.50;;;7.14;65.57
24892;BME280;12954;50.688;10.908;2023-04-01T06:46:44;93901.91;;;7.18;64.88
24892;BME280;12954;50.688;10.908;2023-04-01T06:49:28;93899.44;;;7.22;64.89
24892;BME280;12954;50.688;10.908;2023-04-01T06:52:08;93869.19;;;6.94;65.11
24892;BME280;12954;50.688;10.908;2023-04-01T06:54:45;93902.69;;;7.19;65.12
24892;BME280;12954;50.688;10.908;2023-04-01T06:57:18;93904.00;;;7.21;64.19
24892;BME280;12954;50.688;10.908;2023-04-01T06:59:49;93907.16;;;7.10;64.77
24892;BME280;12954;50.688;10.908;2023-04-01T07:02:24;93857.34;;;6.82;64.69
24892;BME280;12954;50.688;10.908;2023-04-01T07:04:58;93884.75;;;6.92;64.67
24892;BME280;12954;50.688;10.908;2023-04-01T07:07:33;93919.78;;;6.96;65.35
24892;BME280;12954;50.688;10.908;2023-04-01T07:10:09;93915.22;;;6.96;65.48
24892;BME280;12954;50.688;10.908;2023-04-01T07:12:44;93891.28;;;6.86;65.45
24892;BME280;12954;50.688;10.908;2023-04-01T07:15:18;93893.78;;;6.83;65.33
24892;BME280;12954;50.688;10.908;2023-04-01T07:17:52;93915.81;;;7.07;65.34
24892;BME280;12954;50.688;10.908;2023-04-01T07:20:24;93917.09;;;6.96;65.57
24892;BME280;12954;50.688;10.908;2023-04-01T07:22:56;93914.13;;;7.11;64.97
24892;BME280;12954;50.688;10.908;2023-04-01T07:25:31;93912.16;;;7.03;65.30
24892;BME280;12954;50.688;10.908;2023-04-01T07:28:04;93922.69;;;6.99;65.29
24892;BME280;12954;50.688;10.908;2023-04-01T07:30:52;93925.56;;;7.03;65.14
24892;BME280;12954;50.688;10.908;2023-04-01T07:33:24;93926.75;;;7.10;64.90
24892;BME280;12954;50.688;10.908;2023-04-01T07:36:00;93920.91;;;6.95;65.26
24892;BME280;12954;50.688;10.908;2023-04-01T07:38:39;93924.66;;;6.94;65.70
24892;BME280;12954;50.688;10.908;2023-04-01T07:41:17;93932.59;;;6.99;65.83
24892;BME280;12954;50.688;10.908;2023-04-01T07:43:59;93930.72;;;7.13;65.51
24892;BME280;12954;50.688;10.908;2023-04-01T07:46:49;93936.06;;;7.13;65.23
24892;BME280;12954;50.688;10.908;2023-04-01T07:49:26;93935.09;;;7.09;65.65
24892;BME280;12954;50.688;10.908;2023-04-01T07:51:59;93945.31;;;7.07;65.89
24892;BME280;12954;50.688;10.908;2023-04-01T07:54:34;93942.31;;;7.22;65.29
24892;BME280;12954;50.688;10.908;2023-04-01T07:57:12;93951.97;;;7.23;65.01
24892;BME280;12954;50.688;10.908;2023-04-01T07:59:50;93915.94;;;6.88;65.32
24892;BME280;12954;50.688;10.908;2023-04-01T08:02:30;93947.69;;;7.08;65.33
24892;BME280;12954;50.688;10.908;2023-04-01T08:05:09;93939.56;;;7.00;65.73
24892;BME280;12954;50.688;10.908;2023-04-01T08:07:47;93935.50;;;6.89;65.65
24892;BME280;12954;50.688;10.908;2023-04-01T08:10:22;93892.47;;;6.66;65.57
24892;BME280;12954;50.688;10.908;2023-04-01T08:12:59;93961.91;;;7.09;65.64
24892;BME280;12954;50.688;10.908;2023-04-01T08:15:37;93958.72;;;7.07;65.42
24892;BME280;12954;50.688;10.908;2023-04-01T08:18:15;93956.53;;;7.09;65.71
24892;BME280;12954;50.688;10.908;2023-04-01T08:20:52;93949.69;;;7.03;65.91
24892;BME280;12954;50.688;10.908;2023-04-01T08:23:24;93957.72;;;7.03;66.02
24892;BME280;12954;50.688;10.908;2023-04-01T08:25:57;93962.00;;;7.17;65.70
24892;BME280;12954;50.688;10.908;2023-04-01T08:28:34;93960.13;;;7.18;65.71
24892;BME280;12954;50.688;10.908;2023-04-01T08:31:09;93955.03;;;7.16;65.88
24892;BME280;12954;50.688;10.908;2023-04-01T08:33:42;93967.06;;;7.19;65.98
24892;BME280;12954;50.688;10.908;2023-04-01T08:36:15;93966.06;;;7.29;65.82
24892;BME280;12954;50.688;10.908;2023-04-01T08:38:50;93967.66;;;7.30;66.02
24892;BME280;12954;50.688;10.908;2023-04-01T08:42:02;93962.47;;;7.33;66.37
24892;BME280;12954;50.688;10.908;2023-04-01T08:45:08;93973.63;;;7.40;66.25
24892;BME280;12954;50.688;10.908;2023-04-01T08:48:07;93958.53;;;7.44;66.16
24892;BME280;12954;50.688;10.908;2023-04-01T08:54:03;93924.06;;;7.10;65.53
24892;BME280;12954;50.688;10.908;2023-04-01T08:56:40;93946.00;;;7.26;65.80
24892;BME280;12954;50.688;10.908;2023-04-01T08:59:28;93965.78;;;7.44;65.29
24892;BME280;12954;50.688;10.908;2023-04-01T09:05:35;93963.47;;;7.51;65.77
24892;BME280;12954;50.688;10.908;2023-04-01T09:08:15;93956.13;;;7.56;65.75
24892;BME280;12954;50.688;10.908;2023-04-01T09:11:16;93952.06;;;7.59;65.81
24892;BME280;12954;50.688;10.908;2023-04-01T09:14:20;93958.69;;;7.61;65.73
24892;BME280;12954;50.688;10.908;2023-04-01T09:17:14;93957.31;;;7.64;65.57
24892;BME280;12954;50.688;10.908;2023-04-01T09:20:06;93956.38;;;7.68;65.44
24892;BME280;12954;50.688;10.908;2023-04-01T09:22:50;93953.69;;;7.68;65.62
24892;BME280;12954;50.688;10.908;2023-04-01T09:25:46;93964.97;;;7.70;65.89
24892;BME280;12954;50.688;10.908;2023-04-01T09:28:20;93973.41;;;7.77;65.69
24892;BME280;12954;50.688;10.908;2023-04-01T09:31:09;93972.88;;;7.89;65.37
24892;BME280;12954;50.688;10.908;2023-04-01T09:34:04;93963.81;;;7.99;65.08
24892;BME280;12954;50.688;10.908;2023-04-01T09:36:45;93965.22;;;7.96;65.30
24892;BME280;12954;50.688;10.908;2023-04-01T09:39:35;93971.25;;;8.02;65.09
24892;BME280;12954;50.688;10.908;2023-04-01T09:42:37;93961.44;;;7.97;64.84
24892;BME280;12954;50.688;10.908;2023-04-01T09:45:23;93973.59;;;7.95;65.14
24892;BME280;12954;50.688;10.908;2023-04-01T09:48:03;93944.66;;;7.92;64.56
24892;BME280;12954;50.688;10.908;2023-04-01T09:50:45;93976.50;;;8.07;64.81
24892;BME280;12954;50.688;10.908;2023-04-01T09:53:35;93976.91;;;8.14;64.84
24892;BME280;12954;50.688;10.908;2023-04-01T09:59:46;93972.88;;;8.25;64.55
24892;BME280;12954;50.688;10.908;2023-04-01T10:02:51;93973.91;;;8.15;64.71
24892;BME280;12954;50.688;10.908;2023-04-01T10:06:09;93971.53;;;8.14;64.80
24892;BME280;12954;50.688;10.908;2023-04-01T10:09:15;93967.75;;;8.15;64.74
24892;BME280;12954;50.688;10.908;2023-04-01T10:12:35;93974.59;;;8.21;65.25
24892;BME280;12954;50.688;10.908;2023-04-01T10:15:24;93976.56;;;8.29;65.02
24892;BME280;12954;50.688;10.908;2023-04-01T10:18:19;93971.72;;;8.40;64.56
24892;BME280;12954;50.688;10.908;2023-04-01T10:24:20;93971.78;;;8.26;64.74
24892;BME280;12954;50.688;10.908;2023-04-01T10:27:30;93944.66;;;8.14;64.97
24892;BME280;12954;50.688;10.908;2023-04-01T10:33:34;93966.66;;;8.60;64.36
24892;BME280;12954;50.688;10.908;2023-04-01T10:43:05;93969.66;;;8.59;63.25
24892;BME280;12954;50.688;10.908;2023-04-01T10:46:06;93966.16;;;8.58;63.78
24892;BME280;12954;50.688;10.908;2023-04-01T10:55:33;93973.91;;;8.60;64.15
24892;BME280;12954;50.688;10.908;2023-04-01T10:58:26;93972.50;;;8.62;63.82
24892;BME280;12954;50.688;10.908;2023-04-01T11:07:52;93977.06;;;8.84;64.22
24892;BME280;12954;50.688;10.908;2023-04-01T11:11:04;93967.34;;;8.97;64.34
24892;BME280;12954;50.688;10.908;2023-04-01T11:17:11;93944.59;;;9.03;63.55
24892;BME280;12954;50.688;10.908;2023-04-01T11:20:04;93967.19;;;9.24;63.37
24892;BME280;12954;50.688;10.908;2023-04-01T11:29:00;93988.44;;;9.34;63.34
24892;BME280;12954;50.688;10.908;2023-04-01T11:31:39;93982.59;;;9.40;63.40
24892;BME280;12954;50.688;10.908;2023-04-01T11:37:15;93983.00;;;9.56;62.28
24892;BME280;12954;50.688;10.908;2023-04-01T11:39:56;93950.69;;;9.17;62.33
24892;BME280;12954;50.688;10.908;2023-04-01T11:42:35;93974.53;;;9.40;62.23
24892;BME280;12954;50.688;10.908;2023-04-01T11:45:17;93982.31;;;9.51;62.33
24892;BME280;12954;50.688;10.908;2023-04-01T11:48:03;93987.69;;;9.51;62.46
24892;BME280;12954;50.688;10.908;2023-04-01T11:50:47;93998.97;;;9.53;62.34
24892;BME280;12954;50.688;10.908;2023-04-01T11:53:35;93993.88;;;9.51;62.40
24892;BME280;12954;50.688;10.908;2023-04-01T11:56:16;93987.38;;;9.43;61.41
24892;BME280;12954;50.688;10.908;2023-04-01T11:59:08;93998.78;;;9.49;61.58
24892;BME280;12954;50.688;10.908;2023-04-01T12:01:49;93942.38;;;9.05;62.14
24892;BME280;12954;50.688;10.908;2023-04-01T12:04:38;94006.53;;;9.51;62.24
24892;BME280;12954;50.688;10.908;2023-04-01T12:07:21;94002.94;;;9.64;61.37
24892;BME280;12954;50.688;10.908;2023-04-01T12:09:59;94006.13;;;9.66;61.69
24892;BME280;12954;50.688;10.908;2023-04-01T12:12:36;94000.28;;;9.72;62.06
24892;BME280;12954;50.688;10.908;2023-04-01T12:15:32;93977.31;;;9.66;62.06
24892;BME280;12954;50.688;10.908;2023-04-01T12:18:14;93998.78;;;10.06;61.51
24892;BME280;12954;50.688;10.908;2023-04-01T12:20:49;94005.91;;;10.01;61.46
24892;BME280;12954;50.688;10.908;2023-04-01T12:23:37;94012.09;;;10.02;61.33
24892;BME280;12954;50.688;10.908;2023-04-01T12:26:25;94014.56;;;9.81;61.96
24892;BME280;12954;50.688;10.908;2023-04-01T12:29:13;94018.06;;;9.90;62.03
24892;BME280;12954;50.688;10.908;2023-04-01T12:31:53;94030.28;;;9.96;61.74
24892;BME280;12954;50.688;10.908;2023-04-01T12:34:45;94018.25;;;9.94;61.03
24892;BME280;12954;50.688;10.908;2023-04-01T12:37:20;93967.56;;;9.48;61.55
24892;BME280;12954;50.688;10.908;2023-04-01T12:40:16;94027.25;;;9.89;61.15
24892;BME280;12954;50.688;10.908;2023-04-01T12:43:00;93992.03;;;9.69;61.24
24892;BME280;12954;50.688;10.908;2023-04-01T12:45:35;94021.53;;;9.82;61.56
24892;BME280;12954;50.688;10.908;2023-04-01T12:48:27;94014.13;;;9.88;60.77
24892;BME280;12954;50.688;10.908;2023-04-01T12:51:32;94024.25;;;9.91;60.73
24892;BME280;12954;50.688;10.908;2023-04-01T12:54:17;94019.97;;;9.90;60.84
24892;BME280;12954;50.688;10.908;2023-04-01T12:57:03;94023.47;;;9.90;61.18
24892;BME280;12954;50.688;10.908;2023-04-01T12:59:58;94003.44;;;9.74;60.72
24892;BME280;12954;50.688;10.908;2023-04-01T13:02:40;94018.53;;;9.92;60.99
24892;BME280;12954;50.688;10.908;2023-04-01T13:05:24;94026.00;;;9.95;60.54
24892;BME280;12954;50.688;10.908;2023-04-01T13:08:02;94023.47;;;9.90;60.95
24892;BME280;12954;50.688;10.908;2023-04-01T13:10:58;94025.56;;;10.02;60.98
24892;BME280;12954;50.688;10.908;2023-04-01T13:13:53;94014.94;;;10.06;61.29
24892;BME280;12954;50.688;10.908;2023-04-01T13:16:29;94028.28;;;10.28;61.14
24892;BME280;12954;50.688;10.908;2023-04-01T13:19:03;94030.22;;;10.36;61.08
24892;BME280;12954;50.688;10.908;2023-04-01T13:21:45;94044.50;;;10.45;60.95
24892;BME280;12954;50.688;10.908;2023-04-01T13:24:30;94031.50;;;10.47;61.10
24892;BME280;12954;50.688;10.908;2023-04-01T13:27:05;94032.78;;;10.58;60.02
24892;BME280;12954;50.688;10.908;2023-04-01T13:29:41;94035.13;;;10.51;59.94
24892;BME280;12954;50.688;10.908;2023-04-01T13:32:22;94032.28;;;10.47;60.64
24892;BME280;12954;50.688;10.908;2023-04-01T13:35:20;94040.38;;;10.56;60.52
24892;BME280;12954;50.688;10.908;2023-04-01T13:38:04;94032.59;;;10.63;60.25
24892;BME280;12954;50.688;10.908;2023-04-01T13:40:43;94035.13;;;10.59;60.03
24892;BME280;12954;50.688;10.908;2023-04-01T13:43:31;94040.22;;;10.52;60.04
24892;BME280;12954;50.688;10.908;2023-04-01T13:46:15;94036.28;;;10.50;60.35
24892;BME280;12954;50.688;10.908;2023-04-01T13:49:11;93992.97;;;10.38;59.93
24892;BME280;12954;50.688;10.908;2023-04-01T13:52:09;94041.34;;;10.69;59.58
24892;BME280;12954;50.688;10.908;2023-04-01T13:54:58;94012.31;;;10.40;59.27
24892;BME280;12954;50.688;10.908;2023-04-01T13:57:48;94048.63;;;10.51;59.39
24892;BME280;12954;50.688;10.908;2023-04-01T14:00:37;94045.47;;;10.49;59.20
24892;BME280;12954;50.688;10.908;2023-04-01T14:03:26;94038.81;;;10.46;59.29
24892;BME280;12954;50.688;10.908;2023-04-01T14:06:05;94045.75;;;10.56;59.35
24892;BME280;12954;50.688;10.908;2023-04-01T14:08:47;94048.31;;;10.61;59.08
24892;BME280;12954;50.688;10.908;2023-04-01T14:11:25;94049.75;;;10.58;58.89
24892;BME280;12954;50.688;10.908;2023-04-01T14:14:04;94045.94;;;10.59;57.70
24892;BME280;12954;50.688;10.908;2023-04-01T14:19:58;94058.41;;;10.30;58.67
24892;BME280;12954;50.688;10.908;2023-04-01T14:22:37;94061.72;;;10.27;58.95
24892;BME280;12954;50.688;10.908;2023-04-01T14:25:39;94056.81;;;10.29;58.75
24892;BME280;12954;50.688;10.908;2023-04-01T14:28:17;94052.03;;;10.09;59.04
24892;BME280;12954;50.688;10.908;2023-04-01T14:31:16;94061.22;;;10.08;59.08
24892;BME280;12954;50.688;10.908;2023-04-01T14:33:58;94061.38;;;10.02;59.03
24892;BME280;12954;50.688;10.908;2023-04-01T14:36:43;94058.53;;;10.08;58.52
24892;BME280;12954;50.688;10.908;2023-04-01T14:39:34;94070.06;;;9.99;58.47
24892;BME280;12954;50.688;10.908;2023-04-01T14:42:23;94075.59;;;9.94;58.16
24892;BME280;12954;50.688;10.908;2023-04-01T14:45:24;94073.66;;;9.86;58.99
24892;BME280;12954;50.688;10.908;2023-04-01T14:47:59;94080.78;;;9.82;59.03
24892;BME280;12954;50.688;10.908;2023-04-01T14:50:42;93846.06;;;8.36;58.95
24892;BME280;12954;50.688;10.908;2023-04-01T14:53:23;94031.28;;;9.61;58.71
24892;BME280;12954;50.688;10.908;2023-04-01T14:55:57;94072.72;;;9.82;58.93
24892;BME280;12954;50.688;10.908;2023-04-01T14:58:43;94062.97;;;9.64;58.92